createdAt,value
2022-11-15T00:00:04.888Z,33.90
2022-11-15T00:02:35.004Z,30.60
2022-11-15T00:05:05.374Z,31.90
2022-11-15T00:07:54.553Z,34.30
2022-11-15T00:10:23.631Z,33.15
2022-11-15T00:12:52.135Z,29.67
2022-11-15T00:15:20.582Z,31.13
2022-11-15T00:17:52.129Z,32.65
2022-11-15T00:20:22.215Z,31.25
2022-11-15T00:22:52.337Z,34.10
2022-11-15T00:25:22.490Z,31.90
2022-11-15T00:27:58.442Z,30.80
2022-11-15T00:30:29.808Z,29.83
2022-11-15T00:33:08.066Z,30.88
2022-11-15T00:35:38.240Z,30.58
2022-11-15T00:38:08.442Z,30.42
2022-11-15T00:40:38.552Z,30.75
2022-11-15T00:43:08.732Z,32.13
2022-11-15T00:45:37.272Z,31.73
2022-11-15T00:48:06.142Z,30.85
2022-11-15T00:50:33.894Z,28.48
2022-11-15T00:53:02.286Z,29.95
2022-11-15T00:55:30.808Z,31.80
2022-11-15T00:57:59.184Z,31.05
2022-11-15T01:00:27.942Z,32.65
2022-11-15T01:02:57.598Z,31.00
2022-11-15T01:05:27.607Z,30.70
2022-11-15T01:07:57.526Z,31.42
2022-11-15T01:10:27.744Z,30.92
2022-11-15T01:12:58.742Z,31.35
2022-11-15T01:15:28.867Z,30.60
2022-11-15T01:17:58.981Z,30.52
2022-11-15T01:20:31.895Z,29.20
2022-11-15T01:23:01.963Z,28.23
2022-11-15T01:25:32.019Z,29.50
2022-11-15T01:28:02.146Z,30.23
2022-11-15T01:30:32.383Z,29.00
2022-11-15T01:33:02.595Z,29.35
2022-11-15T01:35:33.344Z,30.92
2022-11-15T01:38:03.550Z,28.30
2022-11-15T01:40:33.962Z,29.88
2022-11-15T01:43:37.666Z,28.70
2022-11-15T01:46:25.066Z,32.10
2022-11-15T01:49:03.606Z,31.48
2022-11-15T01:54:18.192Z,28.73
2022-11-15T01:57:08.714Z,31.92
2022-11-15T01:59:45.661Z,30.70
2022-11-15T02:02:14.957Z,29.20
2022-11-15T02:04:47.955Z,29.67
2022-11-15T02:07:22.776Z,32.65
2022-11-15T02:09:53.825Z,29.95
2022-11-15T02:12:24.874Z,31.73
2022-11-15T02:14:57.558Z,29.85
2022-11-15T02:18:24.773Z,31.33
2022-11-15T02:21:44.792Z,30.17
2022-11-15T02:24:58.121Z,28.17
2022-11-15T02:28:01.015Z,29.08
2022-11-15T02:31:03.932Z,30.02
2022-11-15T02:34:03.622Z,29.52
2022-11-15T02:39:57.119Z,28.65
2022-11-15T02:43:09.430Z,34.03
2022-11-15T02:45:58.081Z,29.30
2022-11-15T02:48:28.457Z,28.45
2022-11-15T02:50:59.317Z,28.98
2022-11-15T02:53:29.765Z,30.63
2022-11-15T02:55:59.654Z,31.27
2022-11-15T02:59:15.209Z,28.95
2022-11-15T03:02:01.231Z,31.20
2022-11-15T03:04:50.924Z,30.02
2022-11-15T03:07:52.353Z,29.92
2022-11-15T03:11:01.690Z,29.85
2022-11-15T03:14:16.033Z,31.48
2022-11-15T03:17:19.757Z,28.58
2022-11-15T03:20:00.480Z,29.77
2022-11-15T03:22:45.256Z,30.45
2022-11-15T03:25:26.518Z,32.00
2022-11-15T03:28:07.940Z,28.98
2022-11-15T03:30:42.487Z,32.78
2022-11-15T03:33:13.465Z,31.38
2022-11-15T03:35:49.651Z,31.92
2022-11-15T03:38:36.624Z,29.30
2022-11-15T03:41:41.740Z,30.80
2022-11-15T03:44:55.570Z,28.67
2022-11-15T03:47:45.225Z,29.95
2022-11-15T03:50:24.305Z,30.65
2022-11-15T03:52:58.091Z,33.13
2022-11-15T03:55:26.016Z,33.58
2022-11-15T03:58:01.333Z,31.02
2022-11-15T04:00:30.966Z,31.50
2022-11-15T04:03:00.484Z,32.38
2022-11-15T04:05:30.519Z,30.42
2022-11-15T04:08:00.196Z,30.17
2022-11-15T04:10:29.988Z,30.83
2022-11-15T04:12:59.886Z,29.63
2022-11-15T04:15:32.983Z,29.15
2022-11-15T04:18:03.120Z,31.50
2022-11-15T04:21:09.493Z,31.13
2022-11-15T04:23:58.418Z,29.42
2022-11-15T04:26:28.782Z,29.75
2022-11-15T04:29:15.554Z,28.52
2022-11-15T04:31:46.006Z,29.58
2022-11-15T04:34:16.101Z,28.25
2022-11-15T04:37:05.021Z,30.13
2022-11-15T04:39:35.113Z,29.92
2022-11-15T04:42:09.191Z,28.48
2022-11-15T04:44:39.847Z,31.30
2022-11-15T04:47:10.932Z,29.42
2022-11-15T04:49:41.068Z,29.65
2022-11-15T04:52:11.316Z,28.52
2022-11-15T04:54:43.271Z,29.38
2022-11-15T04:57:13.426Z,31.42
2022-11-15T04:59:43.574Z,29.08
2022-11-15T05:02:12.111Z,30.73
2022-11-15T05:04:41.727Z,34.72
2022-11-15T05:07:09.372Z,33.50
2022-11-15T05:09:37.827Z,32.00
2022-11-15T05:12:10.492Z,32.72
2022-11-15T05:14:40.971Z,32.63
2022-11-15T05:17:11.115Z,33.28
2022-11-15T05:19:41.437Z,34.15
2022-11-15T05:22:11.631Z,32.60
2022-11-15T05:24:41.799Z,32.47
2022-11-15T05:27:11.899Z,29.15
2022-11-15T05:29:42.047Z,28.10
2022-11-15T05:32:14.346Z,33.38
2022-11-15T05:34:45.488Z,31.50
2022-11-15T05:37:17.783Z,29.25
2022-11-15T05:39:47.944Z,31.15
2022-11-15T05:42:19.966Z,30.38
2022-11-15T05:44:51.606Z,29.30
2022-11-15T05:47:30.477Z,32.10
2022-11-15T05:50:00.764Z,31.58
2022-11-15T05:52:38.333Z,27.17
2022-11-15T05:55:11.672Z,31.90
2022-11-15T05:57:42.780Z,29.45
2022-11-15T06:00:14.564Z,29.17
2022-11-15T06:02:45.075Z,29.58
2022-11-15T06:05:15.911Z,31.05
2022-11-15T06:07:46.181Z,25.60
2022-11-15T06:10:17.426Z,27.00
2022-11-15T06:12:45.131Z,29.33
2022-11-15T06:15:13.292Z,27.20
2022-11-15T06:17:41.649Z,30.40
2022-11-15T06:20:11.440Z,31.05
2022-11-15T06:22:38.607Z,29.15
2022-11-15T06:25:07.699Z,31.20
2022-11-15T06:27:35.557Z,31.00
2022-11-15T06:30:04.450Z,30.50
2022-11-15T06:32:32.583Z,32.15
2022-11-15T06:35:00.870Z,30.58
2022-11-15T06:37:29.093Z,31.38
2022-11-15T06:39:57.678Z,33.13
2022-11-15T06:42:26.098Z,30.27
2022-11-15T06:44:54.463Z,33.88
2022-11-15T06:47:22.964Z,34.58
2022-11-15T06:49:51.494Z,32.80
2022-11-15T06:52:20.694Z,31.48
2022-11-15T06:54:48.383Z,32.22
2022-11-15T06:57:16.560Z,32.20
2022-11-15T06:59:45.046Z,30.25
2022-11-15T07:02:15.156Z,33.13
2022-11-15T07:04:44.809Z,32.15
2022-11-15T07:07:13.295Z,32.05
2022-11-15T07:09:41.753Z,32.83
2022-11-15T07:12:14.524Z,31.92
2022-11-15T07:14:44.603Z,33.58
2022-11-15T07:17:14.771Z,34.38
2022-11-15T07:19:44.914Z,35.03
2022-11-15T07:23:39.475Z,35.30
2022-11-15T07:26:10.266Z,33.03
2022-11-15T07:28:40.478Z,37.35
2022-11-15T07:31:12.184Z,38.35
2022-11-15T07:33:42.327Z,39.13
2022-11-15T07:36:12.376Z,39.50
2022-11-15T07:38:43.219Z,37.58
2022-11-15T07:41:13.419Z,36.80
2022-11-15T07:43:43.609Z,37.72
2022-11-15T07:46:13.763Z,35.95
2022-11-15T07:48:45.272Z,36.78
2022-11-15T07:51:18.169Z,36.10
2022-11-15T07:53:48.196Z,36.08
2022-11-15T07:56:18.443Z,38.25
2022-11-15T07:58:48.463Z,34.67
2022-11-15T08:01:18.507Z,39.72
2022-11-15T08:03:48.664Z,36.05
2022-11-15T08:06:18.562Z,37.78
2022-11-15T08:08:49.022Z,37.60
2022-11-15T08:11:19.187Z,38.20
2022-11-15T08:13:49.231Z,37.35
2022-11-15T08:16:19.022Z,38.08
2022-11-15T08:18:47.941Z,35.22
2022-11-15T08:21:22.156Z,36.67
2022-11-15T08:23:51.291Z,36.17
2022-11-15T08:26:21.134Z,36.50
2022-11-15T08:28:51.005Z,38.28
2022-11-15T08:31:20.911Z,36.03
2022-11-15T08:33:50.690Z,37.35
2022-11-15T08:36:20.875Z,37.17
2022-11-15T08:38:50.558Z,35.42
2022-11-15T08:41:36.858Z,33.55
2022-11-15T08:44:05.501Z,33.55
2022-11-15T08:46:35.581Z,35.63
2022-11-15T08:49:05.679Z,36.03
2022-11-15T08:51:35.804Z,35.08
2022-11-15T08:54:06.055Z,33.90
2022-11-15T08:56:36.121Z,32.30
2022-11-15T08:59:06.339Z,33.42
2022-11-15T09:01:36.497Z,32.83
2022-11-15T09:04:06.743Z,33.00
2022-11-15T09:06:39.733Z,30.48
2022-11-15T09:09:13.267Z,31.45
2022-11-15T09:11:43.393Z,32.42
2022-11-15T09:14:15.942Z,29.92
2022-11-15T09:16:46.068Z,30.15
2022-11-15T09:19:16.278Z,28.95
2022-11-15T09:21:46.378Z,28.92
2022-11-15T09:24:16.571Z,28.85
2022-11-15T09:26:47.130Z,27.60
2022-11-15T09:29:17.178Z,28.25
2022-11-15T09:31:47.309Z,27.30
2022-11-15T09:34:17.511Z,26.45
2022-11-15T09:36:45.886Z,26.95
2022-11-15T09:39:14.366Z,28.23
2022-11-15T09:42:17.962Z,28.45
2022-11-15T09:45:29.139Z,26.35
2022-11-15T09:48:45.532Z,27.10
2022-11-15T09:51:49.252Z,27.08
2022-11-15T09:54:58.200Z,23.65
2022-11-15T09:58:01.830Z,23.75
2022-11-15T10:00:49.960Z,22.77
2022-11-15T10:03:38.534Z,22.38
2022-11-15T10:06:25.746Z,22.40
2022-11-15T10:09:24.129Z,21.25
2022-11-15T10:11:55.219Z,21.25
2022-11-15T10:14:32.135Z,19.58
2022-11-15T10:17:59.450Z,19.83
2022-11-15T10:20:59.494Z,17.85
2022-11-15T10:23:33.061Z,17.27
2022-11-15T10:26:14.650Z,18.77
2022-11-15T10:28:44.741Z,17.80
2022-11-15T10:31:28.983Z,18.48
2022-11-15T10:34:22.598Z,17.00
2022-11-15T10:37:02.695Z,16.40
2022-11-15T10:39:31.632Z,16.15
2022-11-15T10:42:17.896Z,16.95
2022-11-15T10:44:47.923Z,15.82
2022-11-15T10:47:45.673Z,16.73
2022-11-15T10:50:33.451Z,17.42
2022-11-15T10:53:03.971Z,15.77
2022-11-15T10:55:36.512Z,14.85
2022-11-15T10:58:34.484Z,16.15
2022-11-15T11:01:19.509Z,15.50
2022-11-15T11:04:10.814Z,16.20
2022-11-15T11:06:56.378Z,15.15
2022-11-15T11:09:38.802Z,17.17
2022-11-15T11:12:15.732Z,16.05
2022-11-15T11:14:45.766Z,15.70
2022-11-15T11:18:10.457Z,16.67
2022-11-15T11:20:55.126Z,16.20
2022-11-15T11:23:44.544Z,15.40
2022-11-15T11:27:08.577Z,15.55
2022-11-15T11:30:23.198Z,15.52
2022-11-15T11:33:23.073Z,14.20
2022-11-15T11:36:28.975Z,14.82
2022-11-15T11:39:49.273Z,14.10
2022-11-15T11:43:00.424Z,13.57
2022-11-15T11:45:47.500Z,13.75
2022-11-15T11:48:43.667Z,13.98
2022-11-15T11:51:40.957Z,14.45
2022-11-15T11:54:17.973Z,13.77
2022-11-15T11:56:52.762Z,13.50
2022-11-15T11:59:51.097Z,12.38
2022-11-15T12:02:46.160Z,13.52
2022-11-15T12:06:18.774Z,13.43
2022-11-15T12:09:31.400Z,13.30
2022-11-15T12:12:46.849Z,12.57
2022-11-15T12:15:30.992Z,13.40
2022-11-15T12:18:02.849Z,12.93
2022-11-15T12:20:55.381Z,12.38
2022-11-15T12:23:55.922Z,13.05
2022-11-15T12:26:43.749Z,11.27
2022-11-15T12:29:34.591Z,12.38
2022-11-15T12:32:19.004Z,11.02
2022-11-15T12:34:53.048Z,11.13
2022-11-15T12:37:47.027Z,12.30
2022-11-15T12:40:37.766Z,11.95
2022-11-15T12:43:16.763Z,11.95
2022-11-15T12:45:47.519Z,10.43
2022-11-15T12:48:18.272Z,12.32
2022-11-15T12:50:55.669Z,12.45
2022-11-15T12:53:28.693Z,11.25
2022-11-15T12:56:13.338Z,11.70
2022-11-15T12:58:57.250Z,11.45
2022-11-15T13:01:36.477Z,11.52
2022-11-15T13:04:31.170Z,10.52
2022-11-15T13:07:08.621Z,11.20
2022-11-15T13:09:38.492Z,10.85
2022-11-15T13:12:35.349Z,9.52
2022-11-15T13:15:14.373Z,11.23
2022-11-15T13:18:26.491Z,12.07
2022-11-15T13:21:01.978Z,11.55
2022-11-15T13:23:32.699Z,13.95
2022-11-15T13:26:19.034Z,15.90
2022-11-15T13:28:55.798Z,14.52
2022-11-15T13:31:41.536Z,15.00
2022-11-15T13:34:53.309Z,15.60
2022-11-15T13:37:23.375Z,15.07
2022-11-15T13:39:53.465Z,16.27
2022-11-15T13:42:24.799Z,15.45
2022-11-15T13:45:13.842Z,16.45
2022-11-15T13:47:43.954Z,16.55
2022-11-15T13:50:18.059Z,16.08
2022-11-15T13:52:50.194Z,17.05
2022-11-15T13:55:25.395Z,17.15
2022-11-15T13:58:07.277Z,16.20
2022-11-15T14:00:45.510Z,17.05
2022-11-15T14:03:28.890Z,16.70
2022-11-15T14:06:18.562Z,16.27
2022-11-15T14:09:35.277Z,16.30
2022-11-15T14:12:36.392Z,17.13
2022-11-15T14:15:37.223Z,16.65
2022-11-15T14:18:07.914Z,18.20
2022-11-15T14:20:41.242Z,17.35
2022-11-15T14:23:29.391Z,16.63
2022-11-15T14:26:01.222Z,16.90
2022-11-15T14:28:39.124Z,17.60
2022-11-15T14:31:16.257Z,17.88
2022-11-15T14:33:46.562Z,17.48
2022-11-15T14:36:22.984Z,17.65
2022-11-15T14:38:53.180Z,16.77
2022-11-15T14:41:27.402Z,17.20
2022-11-15T14:43:55.691Z,16.17
2022-11-15T14:46:25.697Z,15.85
2022-11-15T14:48:55.726Z,16.40
2022-11-15T14:51:25.491Z,15.82
2022-11-15T14:53:56.450Z,16.05
2022-11-15T14:56:26.619Z,16.10
2022-11-15T14:58:56.422Z,16.38
2022-11-15T15:01:28.314Z,15.73
2022-11-15T15:03:59.472Z,16.02
2022-11-15T15:06:30.108Z,16.67
2022-11-15T15:09:00.342Z,15.20
2022-11-15T15:11:32.839Z,15.82
2022-11-15T15:14:02.821Z,16.23
2022-11-15T15:16:32.966Z,15.80
2022-11-15T15:19:03.129Z,16.73
2022-11-15T15:21:36.839Z,15.40
2022-11-15T15:24:06.989Z,14.20
2022-11-15T15:26:37.556Z,14.43
2022-11-15T15:29:06.700Z,14.63
2022-11-15T15:31:35.039Z,15.65
2022-11-15T15:34:03.873Z,13.90
2022-11-15T15:36:33.947Z,14.95
2022-11-15T15:39:04.334Z,15.25
2022-11-15T15:41:34.336Z,15.23
2022-11-15T15:44:04.161Z,14.32
2022-11-15T15:46:36.331Z,15.60
2022-11-15T15:49:05.628Z,14.85
2022-11-15T15:51:35.390Z,16.23
2022-11-15T15:54:05.461Z,15.32
2022-11-15T15:56:35.240Z,16.85
2022-11-15T15:59:05.157Z,15.75
2022-11-15T16:01:35.025Z,15.45
2022-11-15T16:04:05.042Z,16.20
2022-11-15T16:06:45.239Z,15.85
2022-11-15T16:09:19.736Z,15.63
2022-11-15T16:11:48.413Z,16.23
2022-11-15T16:14:18.452Z,16.70
2022-11-15T16:16:48.241Z,16.17
2022-11-15T16:19:17.992Z,15.88
2022-11-15T16:21:53.027Z,16.40
2022-11-15T16:24:21.943Z,16.73
2022-11-15T16:26:53.267Z,18.83
2022-11-15T16:29:20.861Z,18.45
2022-11-15T16:31:50.547Z,19.50
2022-11-15T16:34:20.235Z,19.95
2022-11-15T16:36:51.817Z,18.92
2022-11-15T16:39:23.599Z,18.77
2022-11-15T16:41:53.719Z,18.67
2022-11-15T16:44:24.867Z,17.73
2022-11-15T16:46:55.172Z,21.00
2022-11-15T16:49:25.007Z,19.23
2022-11-15T16:51:54.868Z,21.42
2022-11-15T16:54:24.472Z,21.17
2022-11-15T16:56:53.787Z,22.13
2022-11-15T16:59:21.319Z,19.88
2022-11-15T17:01:52.722Z,23.75
2022-11-15T17:04:22.928Z,22.73
2022-11-15T17:06:53.307Z,21.73
2022-11-15T17:09:24.954Z,23.52
2022-11-15T17:11:54.291Z,23.33
2022-11-15T17:14:24.012Z,23.30
2022-11-15T17:16:56.019Z,24.30
2022-11-15T17:19:24.157Z,26.35
2022-11-15T17:21:54.282Z,26.85
2022-11-15T17:24:24.498Z,29.95
2022-11-15T17:26:53.898Z,30.42
2022-11-15T17:29:23.703Z,27.60
2022-11-15T17:31:53.425Z,31.00
2022-11-15T17:34:23.516Z,27.95
2022-11-15T17:36:53.199Z,29.17
2022-11-15T17:39:25.004Z,26.00
2022-11-15T17:41:54.158Z,27.30
2022-11-15T17:44:24.137Z,25.65
2022-11-15T17:46:53.946Z,29.40
2022-11-15T17:49:23.853Z,27.20
2022-11-15T17:51:53.962Z,33.60
2022-11-15T17:54:24.194Z,31.10
2022-11-15T17:57:53.967Z,34.35
2022-11-15T18:00:23.871Z,33.83
2022-11-15T18:02:53.420Z,34.17
2022-11-15T18:05:23.122Z,34.65
2022-11-15T18:07:51.199Z,32.08
2022-11-15T18:10:20.608Z,33.25
2022-11-15T18:12:50.584Z,31.65
2022-11-15T18:15:21.482Z,33.08
2022-11-15T18:17:50.960Z,33.42
2022-11-15T18:20:23.338Z,31.70
2022-11-15T18:22:54.603Z,33.53
2022-11-15T18:25:23.025Z,29.80
2022-11-15T18:27:55.376Z,31.25
2022-11-15T18:30:24.915Z,29.17
2022-11-15T18:32:55.460Z,31.25
2022-11-15T18:35:25.255Z,31.25
2022-11-15T18:37:56.184Z,30.50
2022-11-15T18:40:25.718Z,30.38
2022-11-15T18:42:55.403Z,33.50
2022-11-15T18:45:25.546Z,37.55
2022-11-15T18:47:55.450Z,35.55
2022-11-15T18:50:25.301Z,35.53
2022-11-15T18:52:55.463Z,38.17
2022-11-15T18:55:25.342Z,34.50
2022-11-15T18:57:55.096Z,38.30
2022-11-15T19:00:25.187Z,37.75
2022-11-15T19:02:55.322Z,38.63
2022-11-15T19:05:25.276Z,36.00
2022-11-15T19:07:55.146Z,38.63
2022-11-15T19:10:23.780Z,38.80
2022-11-15T19:12:52.381Z,37.35
2022-11-15T19:15:20.738Z,42.05
2022-11-15T19:17:49.199Z,40.05
2022-11-15T19:20:17.792Z,44.22
2022-11-15T19:22:46.206Z,41.97
2022-11-15T19:25:14.648Z,46.03
2022-11-15T19:27:43.040Z,45.83
2022-11-15T19:30:12.431Z,41.97
2022-11-15T19:32:40.062Z,42.25
2022-11-15T19:35:08.789Z,39.33
2022-11-15T19:37:36.805Z,42.17
2022-11-15T19:40:05.949Z,42.20
2022-11-15T19:42:33.638Z,43.40
2022-11-15T19:45:02.117Z,43.83
2022-11-15T19:47:30.603Z,43.28
2022-11-15T19:49:58.722Z,43.72
2022-11-15T19:52:27.517Z,45.45
2022-11-15T19:54:56.146Z,43.92
2022-11-15T19:57:24.531Z,46.47
2022-11-15T19:59:52.848Z,43.83
2022-11-15T20:02:21.388Z,45.17
2022-11-15T20:04:49.735Z,45.85
2022-11-15T20:07:18.372Z,47.28
2022-11-15T20:09:46.498Z,44.22
2022-11-15T20:12:17.390Z,44.47
2022-11-15T20:14:46.671Z,46.58
2022-11-15T20:17:14.725Z,45.17
2022-11-15T20:19:43.615Z,44.88
2022-11-15T20:22:11.552Z,46.80
2022-11-15T20:24:40.018Z,44.88
2022-11-15T20:27:08.647Z,45.70
2022-11-15T20:29:43.755Z,42.97
2022-11-15T20:32:15.003Z,45.03
2022-11-15T20:34:47.919Z,44.90
2022-11-15T20:37:20.689Z,42.83
2022-11-15T20:39:50.772Z,46.38
2022-11-15T20:42:21.086Z,45.33
2022-11-15T20:44:51.118Z,43.75
2022-11-15T20:47:21.172Z,45.50
2022-11-15T20:49:51.431Z,46.72
2022-11-15T20:52:21.588Z,44.53
2022-11-15T20:54:51.950Z,43.78
2022-11-15T20:57:22.149Z,47.17
2022-11-15T20:59:52.175Z,41.33
2022-11-15T21:02:22.324Z,41.28
2022-11-15T21:04:52.469Z,42.63
2022-11-15T21:07:22.552Z,41.97
2022-11-15T21:10:11.531Z,42.60
2022-11-15T21:12:41.700Z,39.47
2022-11-15T21:15:11.746Z,41.75
2022-11-15T21:17:41.811Z,40.35
2022-11-15T21:20:13.261Z,39.78
2022-11-15T21:22:43.899Z,41.08
2022-11-15T21:25:11.814Z,40.05
2022-11-15T21:27:40.229Z,40.40
2022-11-15T21:30:09.330Z,38.00
2022-11-15T21:32:39.215Z,39.17
2022-11-15T21:35:10.107Z,38.67
2022-11-15T21:37:40.724Z,36.75
2022-11-15T21:40:11.882Z,36.60
2022-11-15T21:42:41.951Z,37.33
2022-11-15T21:45:12.240Z,38.20
2022-11-15T21:47:44.750Z,36.75
2022-11-15T21:50:16.887Z,37.83
2022-11-15T21:52:47.204Z,34.60
2022-11-15T21:55:17.381Z,36.20
2022-11-15T21:57:47.457Z,36.95
2022-11-15T22:00:37.257Z,37.50
2022-11-15T22:03:07.332Z,35.90
2022-11-15T22:05:37.416Z,37.65
2022-11-15T22:08:07.486Z,37.42
2022-11-15T22:10:37.575Z,37.83
2022-11-15T22:13:07.656Z,37.88
2022-11-15T22:15:37.743Z,35.15
2022-11-15T22:18:08.198Z,38.72
2022-11-15T22:20:44.462Z,36.55
2022-11-15T22:23:15.271Z,37.80
2022-11-15T22:25:45.482Z,37.08
2022-11-15T22:28:16.103Z,37.38
2022-11-15T22:30:48.304Z,37.10
2022-11-15T22:33:18.996Z,36.50
2022-11-15T22:35:50.789Z,35.95
2022-11-15T22:38:22.436Z,36.15
2022-11-15T22:40:53.619Z,38.35
2022-11-15T22:43:27.051Z,38.47
2022-11-15T22:46:01.512Z,39.85
2022-11-15T22:48:39.759Z,39.72
2022-11-15T22:51:10.396Z,39.15
2022-11-15T22:53:40.593Z,37.42
2022-11-15T22:56:10.910Z,38.13
2022-11-15T22:58:41.144Z,36.50
2022-11-15T23:01:22.178Z,39.80
2022-11-15T23:03:55.638Z,40.92
2022-11-15T23:06:25.911Z,39.95
2022-11-15T23:08:56.104Z,41.08
2022-11-15T23:11:44.911Z,37.75
2022-11-15T23:14:14.999Z,38.22
2022-11-15T23:16:43.458Z,40.40
2022-11-15T23:19:13.686Z,39.28
2022-11-15T23:22:05.935Z,41.10
2022-11-15T23:24:36.142Z,41.70
2022-11-15T23:27:08.301Z,40.13
2022-11-15T23:29:58.469Z,40.72
2022-11-15T23:32:46.873Z,39.72
2022-11-15T23:35:17.565Z,40.10
2022-11-15T23:37:47.732Z,40.97
2022-11-15T23:40:18.313Z,39.55
2022-11-15T23:42:48.549Z,40.60
2022-11-15T23:45:18.864Z,40.33
2022-11-15T23:47:49.091Z,39.08
2022-11-15T23:50:19.484Z,41.03
2022-11-15T23:52:49.730Z,40.08
2022-11-15T23:55:19.943Z,41.33
2022-11-15T23:57:50.174Z,40.13
